• Join FlightAware (Why Join?)
  • Login
  • US Flag 
Rudolph Flight #1: Arrived! 
06:20PM EST


 

Airport Tracker/Info


-or-


 

Live Flight TrackerFlight Track Log ✈ LOF3376 ✈ 30-Apr-2013 ✈ KSTL - KORD

Flight Track Log - Related Links

Times and Time Zones

All times are in EDT time to prevent confusion due to time zone crossing. See the LOF3376 flight status page for this flight to view local times or setup timezone preferences in your user account.

Time Position Orientation Groundspeed Altitude Reporting Facility
EDT Latitude Longitude Course Direction KTS MPH feet Rate Location/Type
06:42AM 38.7167 -90.3000 North 200 230 2,800  Level Gateway (St. Louis) TRACON
06:43AM 38.7128 -90.2606 97° East 208 239 3,500 2,940 Climbing Kansas City Center
06:44AM 38.7475 -90.2011 53° Northeast 235 270 7,300 2,820 Climbing Kansas City Center
06:45AM 38.9519 -90.2000 North  Level FlightAware Approximate
06:45AM 38.8186 -90.2106 354° North 261 300 9,200  Level Kansas City Center
06:46AM 39.0383 -90.2022 356° North  Level FlightAware Approximate
06:46AM 38.9042 -90.2117 359° North 301 346 11,400  Level Kansas City Center
06:47AM 39.1245 -90.2108 356° North  Level FlightAware Approximate
06:47AM 38.9994 -90.2125 360° North 338 389 13,200  Level Kansas City Center
06:48AM 39.2201 -90.2167 North  Level FlightAware Approximate
06:48AM 39.0967 -90.2147 359° North 351 404 15,500  Level Kansas City Center
06:49AM 39.1947 -90.2156 360° North 353 406 17,700 2,280 Climbing Kansas City Center
06:50AM 39.2917 -90.2178 359° North 351 404 20,100 1,620 Climbing Kansas City Center
06:51AM 39.3925 -90.2172 360° North 359 413 21,000 420 Climbing Kansas City Center
06:52AM 39.5056 -90.1897 11° North 403 464 21,000  Level Kansas City Center
06:53AM 39.6253 -90.1622 10° North 430 495 21,000  Level Kansas City Center
06:54AM 39.7503 -90.1331 10° North 436 502 21,000  Level Kansas City Center
06:55AM 39.8686 -90.1053 10° North 434 499 21,000  Level Kansas City Center
06:56AM 39.9744 -90.0286 29° Northeast 441 507 21,000  Level Kansas City Center
06:57AM 40.0772 -89.9431 32° Northeast 440 506 21,000  Level Kansas City Center
06:58AM 40.1803 -89.8572 32° Northeast 440 506 21,000  Level Kansas City Center
06:59AM 40.3003 -89.7550 33° Northeast 435 501 21,000  Level Chicago Center
07:00AM 40.4031 -89.6686 33° Northeast 441 507 21,000  Level Chicago Center
07:01AM 40.5039 -89.5839 33° Northeast 438 504 21,000  Level Chicago Center
07:02AM 40.6061 -89.4947 34° Northeast 443 510 21,000  Level Chicago Center
07:03AM 40.7086 -89.4083 33° Northeast 442 509 21,000  Level Chicago Center
07:04AM 40.8108 -89.3206 33° Northeast 442 509 21,000  Level Chicago Center
07:05AM 40.9128 -89.2328 33° Northeast 441 507 21,000  Level Chicago Center
07:06AM 41.0172 -89.1433 33° Northeast 441 507 21,000 -540 Level Chicago Center
07:07AM 41.1178 -89.0550 33° Northeast 437 503 20,000 -1,680 Descending Chicago Center
07:08AM 41.2183 -88.9672 33° Northeast 436 502 17,700 -2,220 Descending Chicago Center
07:09AM 41.3128 -88.8817 34° Northeast 422 486 15,600 -2,160 Descending Chicago Center
07:10AM 41.4067 -88.8008 33° Northeast 408 470 13,400 -2,220 Descending Chicago Center
07:11AM 41.4981 -88.7183 34° Northeast 400 460 11,200 -1,200 Descending Chicago Center
07:12AM 41.5656 -88.5686 59° Northeast 395 455 11,000 -120 Descending Chicago Center
07:13AM 41.6211 -88.4414 60° Northeast 397 457 11,000  Level Chicago Center
07:14AM 41.6883 -88.3281 52° Northeast 392 451 11,000  Level Chicago Center
07:15AM 41.7547 -88.2147 52° Northeast 387 445 11,000 -540 Level Chicago Center
07:16AM 41.8108 -88.1217 51° Northeast 328 377 10,000 -1,260 Descending Chicago Center
07:17AM 41.8922 -88.1050 North 304 350 8,500 -1,560 Descending Chicago Center
07:18AM 41.9333 -88.1000 North 306 352 7,900 -1,140 Descending Chicago TRACON
07:19AM 42.0000 -88.1167 349° North 264 304 6,900 -840 Descending Chicago TRACON
07:19AM 42.0289 -88.1447 324° Northwest 237 273 6,500 -1,080 Descending Chicago Center
07:20AM 42.0717 -88.2008 316° Northwest 216 249 5,200 -1,020 Descending Chicago Center
07:21AM 42.1269 -88.1778 17° North 239 275 4,500 -600 Descending Chicago Center
07:22AM 42.1342 -88.1028 83° East 242 278 4,000 -900 Descending Chicago Center
07:23AM 42.1000 -88.0667 142° Southeast 223 257 3,200 -1,740 Descending Chicago TRACON